createdAt,value
2022-08-27T00:01:37.324Z,1.38
2022-08-27T00:04:04.206Z,1.80
2022-08-27T00:06:30.939Z,1.52
2022-08-27T00:08:58.322Z,1.75
2022-08-27T00:11:25.560Z,1.55
2022-08-27T00:13:52.620Z,1.40
2022-08-27T00:16:20.142Z,1.48
2022-08-27T00:18:48.409Z,1.73
2022-08-27T00:21:16.093Z,1.20
2022-08-27T00:23:42.696Z,1.42
2022-08-27T00:26:10.574Z,1.35
2022-08-27T00:28:37.395Z,1.60
2022-08-27T00:31:04.082Z,1.40
2022-08-27T00:33:30.811Z,1.70
2022-08-27T00:35:57.674Z,1.52
2022-08-27T00:38:24.440Z,1.40
2022-08-27T00:40:52.509Z,1.42
2022-08-27T00:43:31.943Z,1.40
2022-08-27T00:46:16.625Z,1.55
2022-08-27T00:48:43.267Z,1.58
2022-08-27T00:51:10.796Z,1.65
2022-08-27T00:53:39.388Z,1.40
2022-08-27T00:56:15.607Z,1.23
2022-08-27T00:58:45.356Z,1.30
2022-08-27T01:01:16.545Z,1.40
2022-08-27T01:03:47.581Z,1.20
2022-08-27T01:06:16.634Z,1.52
2022-08-27T01:08:52.051Z,1.35
2022-08-27T01:11:19.378Z,1.83
2022-08-27T01:13:59.726Z,1.50
2022-08-27T01:16:35.840Z,1.48
2022-08-27T01:19:08.089Z,1.50
2022-08-27T01:21:53.370Z,1.30
2022-08-27T01:24:25.743Z,1.48
2022-08-27T01:26:53.351Z,1.48
2022-08-27T01:29:20.287Z,1.48
2022-08-27T01:31:46.894Z,2.05
2022-08-27T01:34:13.619Z,1.70
2022-08-27T01:36:40.533Z,1.50
2022-08-27T01:39:08.088Z,1.67
2022-08-27T01:41:35.557Z,1.30
2022-08-27T01:44:04.294Z,1.65
2022-08-27T01:46:31.079Z,1.23
2022-08-27T01:48:57.773Z,1.52
2022-08-27T01:51:24.351Z,1.23
2022-08-27T01:53:51.154Z,1.58
2022-08-27T01:56:18.236Z,2.08
2022-08-27T01:58:45.639Z,2.13
2022-08-27T02:01:16.857Z,1.70
2022-08-27T02:03:44.690Z,1.33
2022-08-27T02:06:12.135Z,1.30
2022-08-27T02:08:39.525Z,1.40
2022-08-27T02:11:08.344Z,1.42
2022-08-27T02:13:35.286Z,1.75
2022-08-27T02:16:01.945Z,1.50
2022-08-27T02:18:28.600Z,1.70
2022-08-27T02:20:55.105Z,1.58
2022-08-27T02:23:22.698Z,1.52
2022-08-27T02:25:49.257Z,1.63
2022-08-27T02:28:16.392Z,1.70
2022-08-27T02:30:43.251Z,1.50
2022-08-27T02:33:10.991Z,2.00
2022-08-27T02:35:43.094Z,1.42
2022-08-27T02:38:12.887Z,1.50
2022-08-27T02:40:40.432Z,1.80
2022-08-27T02:43:07.739Z,1.50
2022-08-27T02:45:35.520Z,1.85
2022-08-27T02:48:02.543Z,2.20
2022-08-27T02:50:29.190Z,1.73
2022-08-27T02:52:55.889Z,1.90
2022-08-27T02:55:23.065Z,1.30
2022-08-27T02:57:49.676Z,1.60
2022-08-27T03:00:19.888Z,1.70
2022-08-27T03:02:47.079Z,1.95
2022-08-27T03:05:14.791Z,1.38
2022-08-27T03:07:42.295Z,2.10
2022-08-27T03:10:10.249Z,1.77
2022-08-27T03:12:36.918Z,1.45
2022-08-27T03:15:05.813Z,1.90
2022-08-27T03:17:51.088Z,1.60
2022-08-27T03:20:18.906Z,1.58
2022-08-27T03:22:46.011Z,1.80
2022-08-27T03:25:13.590Z,2.00
2022-08-27T03:27:40.764Z,1.60
2022-08-27T03:30:11.862Z,1.88
2022-08-27T03:32:39.165Z,1.70
2022-08-27T03:35:06.265Z,1.67
2022-08-27T03:37:35.036Z,1.80
2022-08-27T03:40:02.164Z,2.10
2022-08-27T03:42:28.940Z,2.45
2022-08-27T03:44:55.511Z,1.73
2022-08-27T03:47:23.722Z,1.90
2022-08-27T03:49:50.715Z,2.00
2022-08-27T03:52:19.333Z,1.88
2022-08-27T03:54:46.040Z,1.80
2022-08-27T03:57:13.062Z,2.05
2022-08-27T03:59:58.441Z,2.00
2022-08-27T04:02:25.253Z,2.00
2022-08-27T04:04:52.004Z,2.10
2022-08-27T04:07:19.064Z,2.30
2022-08-27T04:09:46.628Z,2.88
2022-08-27T04:12:13.196Z,2.20
2022-08-27T04:14:40.199Z,2.13
2022-08-27T04:17:06.817Z,2.47
2022-08-27T04:19:35.106Z,2.30
2022-08-27T04:22:04.336Z,1.88
2022-08-27T04:24:33.173Z,2.40
2022-08-27T04:27:01.266Z,2.42
2022-08-27T04:29:28.609Z,1.80
2022-08-27T04:31:56.128Z,2.30
2022-08-27T04:34:22.957Z,2.08
2022-08-27T04:36:50.294Z,2.08
2022-08-27T04:39:17.024Z,2.28
2022-08-27T04:41:44.668Z,2.22
2022-08-27T04:44:11.698Z,2.45
2022-08-27T04:46:40.521Z,2.30
2022-08-27T04:49:10.848Z,2.50
2022-08-27T04:51:39.969Z,2.50
2022-08-27T04:54:08.115Z,2.00
2022-08-27T04:56:35.962Z,2.10
2022-08-27T04:59:05.095Z,2.45
2022-08-27T05:01:32.349Z,2.42
2022-08-27T05:03:59.091Z,2.30
2022-08-27T05:06:25.883Z,2.30
2022-08-27T05:08:53.917Z,2.28
2022-08-27T05:11:22.607Z,2.50
2022-08-27T05:13:50.484Z,2.28
2022-08-27T05:16:22.752Z,2.63
2022-08-27T05:18:51.778Z,2.00
2022-08-27T05:21:24.049Z,1.98
2022-08-27T05:23:52.032Z,2.30
2022-08-27T05:26:18.870Z,2.50
2022-08-27T05:28:45.606Z,2.20
2022-08-27T05:31:14.631Z,2.42
2022-08-27T05:33:43.509Z,1.95
2022-08-27T05:36:23.047Z,2.30
2022-08-27T05:38:52.509Z,1.90
2022-08-27T05:41:25.019Z,2.33
2022-08-27T05:44:24.088Z,2.15
2022-08-27T05:46:52.369Z,2.40
2022-08-27T05:49:18.936Z,2.22
2022-08-27T05:51:45.610Z,1.88
2022-08-27T05:54:21.109Z,2.42
2022-08-27T05:56:51.554Z,2.40
2022-08-27T05:59:37.244Z,2.25
2022-08-27T06:02:04.315Z,2.35
2022-08-27T06:04:30.980Z,2.10
2022-08-27T06:06:57.635Z,1.90
2022-08-27T06:09:28.881Z,2.38
2022-08-27T06:12:00.257Z,2.03
2022-08-27T06:14:27.702Z,2.30
2022-08-27T06:16:54.268Z,2.30
2022-08-27T06:19:21.404Z,2.00
2022-08-27T06:22:00.047Z,2.13
2022-08-27T06:24:28.999Z,2.40
2022-08-27T06:26:55.591Z,2.20
2022-08-27T06:29:23.673Z,2.38
2022-08-27T06:31:50.478Z,2.40
2022-08-27T06:34:17.804Z,1.80
2022-08-27T06:36:44.520Z,2.10
2022-08-27T06:39:15.491Z,2.10
2022-08-27T06:41:43.898Z,2.20
2022-08-27T06:44:11.215Z,2.13
2022-08-27T06:46:38.849Z,2.10
2022-08-27T06:49:06.003Z,2.10
2022-08-27T06:51:34.626Z,2.10
2022-08-27T06:54:04.296Z,1.88
2022-08-27T06:56:31.625Z,2.00
2022-08-27T06:59:04.000Z,2.10
2022-08-27T07:01:36.992Z,2.10
2022-08-27T07:04:07.410Z,1.60
2022-08-27T07:06:35.991Z,1.80
2022-08-27T07:09:03.913Z,1.77
2022-08-27T07:11:33.807Z,2.40
2022-08-27T07:14:01.185Z,1.63
2022-08-27T07:16:29.317Z,1.60
2022-08-27T07:19:01.895Z,1.55
2022-08-27T07:21:31.821Z,1.88
2022-08-27T07:23:59.848Z,1.70
2022-08-27T07:26:26.687Z,1.63
2022-08-27T07:28:53.650Z,1.75
2022-08-27T07:31:22.422Z,1.35
2022-08-27T07:33:52.594Z,1.63
2022-08-27T07:36:21.615Z,1.30
2022-08-27T07:38:57.059Z,1.08
2022-08-27T07:41:31.996Z,1.40
2022-08-27T07:44:18.866Z,1.20
2022-08-27T07:46:47.999Z,1.42
2022-08-27T07:49:15.455Z,1.40
2022-08-27T07:51:41.990Z,1.40
2022-08-27T07:54:09.015Z,1.05
2022-08-27T07:56:35.779Z,1.42
2022-08-27T07:59:02.627Z,1.40
2022-08-27T08:01:30.181Z,1.58
2022-08-27T08:03:57.097Z,1.40
2022-08-27T08:06:24.061Z,1.45
2022-08-27T08:08:50.626Z,1.77
2022-08-27T08:11:18.839Z,1.23
2022-08-27T08:13:46.769Z,1.23
2022-08-27T08:16:13.941Z,1.40
2022-08-27T08:18:40.724Z,0.98
2022-08-27T08:21:10.713Z,0.98
2022-08-27T08:23:38.418Z,1.10
2022-08-27T08:26:05.623Z,1.10
2022-08-27T08:28:32.277Z,1.52
2022-08-27T08:30:59.406Z,1.45
2022-08-27T08:33:27.564Z,1.20
2022-08-27T08:35:54.668Z,1.50
2022-08-27T08:38:23.319Z,1.30
2022-08-27T08:40:54.513Z,1.38
2022-08-27T08:43:31.390Z,1.42
2022-08-27T08:46:03.891Z,1.40
2022-08-27T08:48:31.360Z,1.23
2022-08-27T08:51:07.637Z,1.27
2022-08-27T08:53:59.147Z,1.20
2022-08-27T08:56:31.329Z,1.15
2022-08-27T08:59:25.209Z,1.50
2022-08-27T09:01:52.043Z,1.50
2022-08-27T09:04:18.642Z,1.45
2022-08-27T09:07:00.782Z,1.25
2022-08-27T09:09:39.300Z,1.27
2022-08-27T09:12:15.248Z,1.02
2022-08-27T09:14:57.858Z,1.00
2022-08-27T09:17:24.737Z,1.42
2022-08-27T09:19:52.663Z,1.30
2022-08-27T09:22:47.249Z,1.65
2022-08-27T09:25:22.418Z,1.48
2022-08-27T09:27:54.815Z,1.73
2022-08-27T09:30:30.905Z,1.42
2022-08-27T09:33:04.264Z,1.55
2022-08-27T09:35:44.865Z,1.25
2022-08-27T09:38:19.697Z,1.50
2022-08-27T09:40:50.623Z,1.50
2022-08-27T09:43:17.329Z,1.63
2022-08-27T09:45:51.422Z,2.13
2022-08-27T09:48:25.679Z,1.80
2022-08-27T09:50:55.994Z,1.20
2022-08-27T09:53:44.240Z,1.40
2022-08-27T09:56:28.202Z,1.42
2022-08-27T09:59:06.547Z,0.93
2022-08-27T10:01:35.962Z,1.33
2022-08-27T10:04:11.352Z,1.25
2022-08-27T10:06:45.085Z,1.73
2022-08-27T10:09:33.245Z,1.23
2022-08-27T10:12:08.585Z,1.20
2022-08-27T10:14:44.121Z,1.43
2022-08-27T10:17:42.090Z,1.70
2022-08-27T10:20:25.854Z,1.45
2022-08-27T10:23:22.041Z,1.13
2022-08-27T10:25:51.522Z,1.30
2022-08-27T10:28:38.869Z,0.90
2022-08-27T10:31:19.542Z,1.58
2022-08-27T10:33:56.994Z,1.75
2022-08-27T10:36:48.219Z,0.88
2022-08-27T10:39:37.165Z,1.30
2022-08-27T10:42:26.645Z,1.45
2022-08-27T10:45:11.598Z,1.38
2022-08-27T10:47:51.788Z,1.25
2022-08-27T10:50:37.432Z,1.23
2022-08-27T10:53:21.845Z,1.00
2022-08-27T10:55:53.639Z,1.90
2022-08-27T10:58:38.670Z,1.33
2022-08-27T11:01:24.041Z,1.25
2022-08-27T11:03:56.491Z,1.23
2022-08-27T11:06:44.165Z,1.63
2022-08-27T11:09:17.240Z,1.52
2022-08-27T11:15:15.610Z,1.80
2022-08-27T11:17:45.776Z,1.40
2022-08-27T11:20:18.717Z,1.33
2022-08-27T11:22:53.990Z,1.55
2022-08-27T11:25:26.650Z,1.33
2022-08-27T11:27:56.448Z,1.20
2022-08-27T11:30:34.819Z,1.48
2022-08-27T11:33:20.202Z,1.30
2022-08-27T11:36:08.592Z,1.65
2022-08-27T11:38:50.487Z,1.33
2022-08-27T11:41:29.412Z,1.15
2022-08-27T11:44:13.864Z,1.30
2022-08-27T11:46:53.590Z,1.67
2022-08-27T11:49:48.616Z,1.30
2022-08-27T11:52:30.534Z,1.40
2022-08-27T11:55:24.021Z,1.25
2022-08-27T11:58:05.213Z,1.40
2022-08-27T12:00:36.183Z,1.73
2022-08-27T12:03:10.167Z,1.98
2022-08-27T12:05:48.337Z,1.52
2022-08-27T12:08:29.697Z,1.55
2022-08-27T12:11:30.923Z,1.20
2022-08-27T12:14:22.243Z,1.45
2022-08-27T12:17:03.713Z,1.40
2022-08-27T12:19:33.324Z,1.88
2022-08-27T12:22:24.590Z,1.40
2022-08-27T12:24:55.665Z,1.63
2022-08-27T12:27:22.460Z,1.50
2022-08-27T12:29:53.994Z,2.00
2022-08-27T12:32:24.542Z,1.35
2022-08-27T12:34:59.636Z,2.45
2022-08-27T12:37:36.008Z,1.60
2022-08-27T12:42:33.614Z,1.73
2022-08-27T12:45:00.285Z,2.40
2022-08-27T12:47:27.247Z,2.30
2022-08-27T12:49:59.659Z,1.90
2022-08-27T12:52:34.961Z,2.35
2022-08-27T12:55:16.769Z,1.50
2022-08-27T12:57:52.485Z,1.65
2022-08-27T13:00:26.292Z,1.60
2022-08-27T13:03:11.781Z,2.08
2022-08-27T13:05:44.490Z,1.60
2022-08-27T13:08:32.059Z,1.25
2022-08-27T13:11:19.415Z,1.80
2022-08-27T13:13:45.989Z,1.90
2022-08-27T13:16:12.836Z,1.73
2022-08-27T13:18:40.541Z,2.45
2022-08-27T13:21:19.165Z,1.80
2022-08-27T13:24:02.108Z,1.50
2022-08-27T13:26:34.057Z,1.77
2022-08-27T13:29:03.705Z,2.05
2022-08-27T13:31:31.908Z,1.90
2022-08-27T13:33:59.965Z,1.20
2022-08-27T13:36:27.765Z,1.70
2022-08-27T13:39:02.447Z,1.30
2022-08-27T13:41:33.360Z,1.67
2022-08-27T13:44:31.390Z,1.73
2022-08-27T13:47:05.308Z,1.58
2022-08-27T13:49:39.734Z,1.40
2022-08-27T13:52:21.829Z,1.48
2022-08-27T13:54:51.723Z,2.30
2022-08-27T13:57:30.830Z,1.40
2022-08-27T14:00:11.181Z,1.35
2022-08-27T14:02:37.806Z,1.40
2022-08-27T14:05:27.987Z,1.42
2022-08-27T14:08:12.332Z,1.80
2022-08-27T14:10:47.296Z,1.13
2022-08-27T14:13:24.656Z,1.42
2022-08-27T14:15:54.300Z,1.58
2022-08-27T14:18:42.210Z,1.45
2022-08-27T14:21:12.866Z,1.38
2022-08-27T14:23:39.743Z,1.95
2022-08-27T14:26:07.888Z,1.90
2022-08-27T14:28:34.515Z,1.70
2022-08-27T14:31:01.080Z,1.60
2022-08-27T14:33:27.969Z,1.50
2022-08-27T14:35:54.714Z,1.23
2022-08-27T14:38:23.813Z,2.00
2022-08-27T14:40:52.909Z,1.80
2022-08-27T14:43:20.061Z,1.50
2022-08-27T14:45:50.455Z,1.88
2022-08-27T14:48:21.966Z,1.60
2022-08-27T14:50:55.543Z,1.00
2022-08-27T14:53:22.150Z,1.52
2022-08-27T14:55:51.654Z,1.63
2022-08-27T14:58:19.478Z,1.40
2022-08-27T15:00:46.109Z,1.38
2022-08-27T15:03:13.135Z,1.20
2022-08-27T15:05:40.301Z,1.58
2022-08-27T15:08:07.686Z,1.33
2022-08-27T15:10:39.705Z,1.33
2022-08-27T15:13:06.481Z,1.27
2022-08-27T15:15:33.104Z,1.40
2022-08-27T15:17:59.706Z,1.77
2022-08-27T15:20:26.358Z,1.65
2022-08-27T15:22:53.102Z,1.02
2022-08-27T15:25:20.543Z,1.13
2022-08-27T15:27:47.055Z,1.70
2022-08-27T15:30:16.089Z,1.77
2022-08-27T15:32:45.894Z,1.42
2022-08-27T15:35:16.439Z,1.35
2022-08-27T15:37:44.489Z,2.00
2022-08-27T15:40:14.349Z,1.92
2022-08-27T15:42:41.511Z,1.65
2022-08-27T15:45:09.418Z,1.50
2022-08-27T15:47:36.117Z,1.70
2022-08-27T15:50:03.513Z,2.28
2022-08-27T15:52:41.091Z,1.60
2022-08-27T15:55:19.834Z,1.30
2022-08-27T15:57:46.680Z,1.50
2022-08-27T16:00:14.058Z,1.98
2022-08-27T16:02:41.514Z,1.38
2022-08-27T16:05:09.015Z,1.60
2022-08-27T16:07:35.963Z,1.88
2022-08-27T16:10:08.874Z,1.83
2022-08-27T16:12:35.963Z,3.92
2022-08-27T16:15:04.182Z,2.08
2022-08-27T16:17:30.928Z,3.53
2022-08-27T16:19:57.951Z,1.77
2022-08-27T16:22:24.623Z,2.70
2022-08-27T16:24:51.196Z,1.60
2022-08-27T16:27:17.932Z,1.77
2022-08-27T16:29:44.644Z,2.33
2022-08-27T16:32:16.821Z,1.38
2022-08-27T16:34:47.575Z,1.30
2022-08-27T16:37:22.674Z,1.55
2022-08-27T16:39:49.404Z,1.60
2022-08-27T16:42:16.056Z,1.20
2022-08-27T16:44:42.840Z,1.15
2022-08-27T16:47:09.540Z,1.20
2022-08-27T16:49:55.125Z,1.33
2022-08-27T16:52:23.569Z,1.40
2022-08-27T16:54:51.329Z,1.40
2022-08-27T16:57:18.006Z,1.05
2022-08-27T16:59:44.719Z,1.67
2022-08-27T17:02:22.285Z,1.17
2022-08-27T17:05:01.402Z,1.17
2022-08-27T17:07:40.358Z,1.30
2022-08-27T17:10:13.227Z,1.58
2022-08-27T17:12:40.736Z,1.45
2022-08-27T17:15:08.164Z,1.48
2022-08-27T17:17:34.865Z,1.67
2022-08-27T17:20:02.621Z,1.15
2022-08-27T17:22:29.312Z,1.08
2022-08-27T17:24:55.836Z,1.55
2022-08-27T17:27:22.402Z,2.20
2022-08-27T17:29:49.058Z,1.25
2022-08-27T17:32:16.163Z,1.45
2022-08-27T17:34:42.830Z,1.20
2022-08-27T17:37:09.551Z,1.15
2022-08-27T17:39:36.257Z,1.58
2022-08-27T17:42:05.201Z,1.25
2022-08-27T17:44:35.763Z,1.55
2022-08-27T17:47:05.194Z,1.10
2022-08-27T17:49:32.389Z,1.30
2022-08-27T17:52:02.342Z,1.10
2022-08-27T17:54:41.992Z,1.70
2022-08-27T17:57:29.499Z,1.40
2022-08-27T18:00:08.633Z,1.30
2022-08-27T18:02:38.802Z,1.55
2022-08-27T18:05:07.254Z,1.02
2022-08-27T18:07:39.131Z,1.27
2022-08-27T18:10:07.243Z,1.58
2022-08-27T18:12:34.022Z,1.63
2022-08-27T18:15:09.950Z,1.40
2022-08-27T18:17:42.525Z,1.15
2022-08-27T18:20:13.606Z,1.20
2022-08-27T18:22:41.995Z,1.67
2022-08-27T18:25:16.842Z,1.40
2022-08-27T18:27:45.291Z,1.98
2022-08-27T18:30:12.724Z,2.33
2022-08-27T18:32:41.074Z,1.77
2022-08-27T18:35:21.689Z,1.73
2022-08-27T18:37:48.571Z,1.15
2022-08-27T18:40:17.389Z,1.50
2022-08-27T18:42:45.242Z,1.70
2022-08-27T18:45:16.528Z,1.38
2022-08-27T18:47:43.517Z,1.30
2022-08-27T18:50:17.570Z,1.65
2022-08-27T18:52:46.511Z,1.42
2022-08-27T18:55:16.280Z,1.13
2022-08-27T18:57:43.115Z,1.30
2022-08-27T19:00:12.061Z,1.30
2022-08-27T19:02:40.082Z,1.40
2022-08-27T19:05:13.749Z,1.25
2022-08-27T19:07:40.363Z,1.70
2022-08-27T19:10:07.877Z,1.40
2022-08-27T19:12:34.575Z,1.50
2022-08-27T19:15:04.188Z,1.73
2022-08-27T19:17:34.220Z,2.20
2022-08-27T19:20:02.598Z,1.70
2022-08-27T19:22:31.876Z,1.67
2022-08-27T19:24:59.604Z,1.77
2022-08-27T19:27:28.931Z,2.30
2022-08-27T19:29:56.063Z,1.60
2022-08-27T19:32:22.780Z,2.47
2022-08-27T19:34:50.303Z,2.20
2022-08-27T19:37:20.905Z,2.25
2022-08-27T19:39:48.703Z,2.58
2022-08-27T19:42:15.521Z,2.42
2022-08-27T19:44:42.488Z,1.90
2022-08-27T19:47:11.011Z,2.10
2022-08-27T19:49:37.884Z,1.80
2022-08-27T19:52:08.331Z,1.65
2022-08-27T19:54:40.081Z,2.05
2022-08-27T19:57:18.573Z,1.95
2022-08-27T19:59:45.282Z,1.90
2022-08-27T20:02:12.626Z,1.85
2022-08-27T20:04:56.054Z,2.00
2022-08-27T20:07:26.621Z,2.08
2022-08-27T20:09:53.192Z,2.00
2022-08-27T20:12:21.862Z,2.25
2022-08-27T20:14:50.050Z,2.20
2022-08-27T20:17:18.674Z,2.05
2022-08-27T20:19:45.385Z,1.90
2022-08-27T20:22:13.253Z,2.17
2022-08-27T20:24:42.339Z,2.67
2022-08-27T20:27:08.993Z,1.60
2022-08-27T20:29:36.011Z,1.95
2022-08-27T20:32:04.353Z,1.90
2022-08-27T20:34:32.616Z,1.80
2022-08-27T20:37:02.368Z,1.90
2022-08-27T20:39:29.036Z,2.80
2022-08-27T20:41:55.645Z,1.85
2022-08-27T20:44:22.632Z,2.33
2022-08-27T20:46:52.203Z,1.83
2022-08-27T20:49:18.993Z,2.40
2022-08-27T20:51:51.242Z,2.00
2022-08-27T20:54:29.171Z,2.00
2022-08-27T20:56:55.832Z,2.00
2022-08-27T20:59:40.852Z,2.10
2022-08-27T21:02:10.462Z,2.38
2022-08-27T21:04:42.939Z,1.92
2022-08-27T21:07:09.587Z,2.38
2022-08-27T21:09:36.250Z,2.67
2022-08-27T21:12:22.585Z,2.50
2022-08-27T21:14:50.085Z,2.47
2022-08-27T21:17:21.510Z,2.35
2022-08-27T21:19:48.044Z,2.20
2022-08-27T21:22:15.875Z,2.30
2022-08-27T21:24:42.422Z,2.70
2022-08-27T21:27:09.066Z,2.33
2022-08-27T21:29:36.843Z,2.50
2022-08-27T21:32:04.931Z,2.80
2022-08-27T21:34:31.557Z,2.88
2022-08-27T21:36:59.144Z,2.58
2022-08-27T21:39:25.679Z,3.70
2022-08-27T21:41:52.674Z,2.65
2022-08-27T21:44:19.252Z,3.22
2022-08-27T21:46:45.874Z,2.92
2022-08-27T21:49:12.603Z,2.95
2022-08-27T21:51:39.242Z,2.83
2022-08-27T21:54:05.866Z,2.58
2022-08-27T21:56:33.135Z,2.70
2022-08-27T21:58:59.784Z,2.80
2022-08-27T22:01:26.375Z,2.90
2022-08-27T22:03:53.064Z,3.10
2022-08-27T22:06:19.910Z,3.22
2022-08-27T22:08:46.540Z,3.20
2022-08-27T22:11:13.273Z,2.80
2022-08-27T22:13:40.407Z,3.28
2022-08-27T22:16:07.530Z,4.00
2022-08-27T22:18:34.913Z,3.13
2022-08-27T22:21:02.675Z,3.20
2022-08-27T22:23:29.360Z,3.17
2022-08-27T22:25:55.914Z,2.97
2022-08-27T22:28:23.279Z,3.10
2022-08-27T22:30:49.950Z,2.92
2022-08-27T22:33:17.569Z,3.50
2022-08-27T22:35:44.579Z,3.03
2022-08-27T22:38:11.493Z,3.20
2022-08-27T22:40:39.381Z,3.50
2022-08-27T22:43:06.058Z,3.00
2022-08-27T22:45:34.545Z,3.60
2022-08-27T22:48:01.221Z,3.30
2022-08-27T22:50:29.832Z,2.90
2022-08-27T22:52:56.464Z,4.13
2022-08-27T22:55:41.693Z,3.35
2022-08-27T22:58:08.321Z,3.42
2022-08-27T23:00:37.486Z,3.10
2022-08-27T23:03:07.031Z,3.10
2022-08-27T23:05:41.723Z,3.95
2022-08-27T23:08:11.162Z,3.40
2022-08-27T23:10:38.618Z,3.00
2022-08-27T23:13:05.560Z,3.20
2022-08-27T23:15:32.265Z,3.55
2022-08-27T23:18:00.552Z,3.30
2022-08-27T23:20:28.393Z,3.92
2022-08-27T23:22:55.593Z,3.17
2022-08-27T23:25:43.688Z,3.63
2022-08-27T23:28:14.831Z,3.00
2022-08-27T23:30:43.332Z,3.10
2022-08-27T23:33:10.167Z,3.28
2022-08-27T23:35:36.815Z,3.47
2022-08-27T23:38:04.339Z,3.20
2022-08-27T23:40:31.128Z,3.60
2022-08-27T23:42:59.486Z,3.83
2022-08-27T23:45:27.089Z,4.13
2022-08-27T23:47:53.950Z,3.33
2022-08-27T23:50:21.491Z,3.55
2022-08-27T23:52:53.714Z,3.63
2022-08-27T23:55:20.610Z,4.20
2022-08-27T23:57:47.344Z,3.28
